sensor_id;sensor_type;location;lat;lon;timestamp;temperature;humidity
61000;SHT31;46879;45.658;11.814;2023-01-30T00:03:00;15.67;67.83
61000;SHT31;46879;45.658;11.814;2023-01-30T00:08:01;15.68;67.82
61000;SHT31;46879;45.658;11.814;2023-01-30T00:13:02;15.68;67.83
61000;SHT31;46879;45.658;11.814;2023-01-30T00:18:03;15.65;68.03
61000;SHT31;46879;45.658;11.814;2023-01-30T00:23:04;15.68;68.12
61000;SHT31;46879;45.658;11.814;2023-01-30T00:28:05;15.64;68.17
61000;SHT31;46879;45.658;11.814;2023-01-30T00:33:05;15.61;68.22
61000;SHT31;46879;45.658;11.814;2023-01-30T00:38:06;15.64;68.33
61000;SHT31;46879;45.658;11.814;2023-01-30T00:43:11;15.64;68.27
61000;SHT31;46879;45.658;11.814;2023-01-30T00:48:31;15.65;68.77
61000;SHT31;46879;45.658;11.814;2023-01-30T00:53:32;15.64;68.57
61000;SHT31;46879;45.658;11.814;2023-01-30T00:58:32;15.63;68.82
61000;SHT31;46879;45.658;11.814;2023-01-30T01:03:33;15.63;68.79
61000;SHT31;46879;45.658;11.814;2023-01-30T01:08:33;15.63;68.86
61000;SHT31;46879;45.658;11.814;2023-01-30T01:13:34;15.64;68.83
61000;SHT31;46879;45.658;11.814;2023-01-30T01:18:35;15.61;68.76
61000;SHT31;46879;45.658;11.814;2023-01-30T01:23:36;15.63;68.97
61000;SHT31;46879;45.658;11.814;2023-01-30T01:28:37;15.61;69.10
61000;SHT31;46879;45.658;11.814;2023-01-30T01:33:37;15.60;69.02
61000;SHT31;46879;45.658;11.814;2023-01-30T01:38:41;15.58;69.20
61000;SHT31;46879;45.658;11.814;2023-01-30T01:44:09;15.58;69.17
61000;SHT31;46879;45.658;11.814;2023-01-30T01:49:24;15.58;69.33
61000;SHT31;46879;45.658;11.814;2023-01-30T01:59:35;15.57;69.40
61000;SHT31;46879;45.658;11.814;2023-01-30T02:04:42;15.57;69.37
61000;SHT31;46879;45.658;11.814;2023-01-30T02:10:02;15.55;69.45
61000;SHT31;46879;45.658;11.814;2023-01-30T02:15:04;15.57;69.43
61000;SHT31;46879;45.658;11.814;2023-01-30T02:20:49;15.57;69.46
61000;SHT31;46879;45.658;11.814;2023-01-30T02:48:06;15.51;69.76
61000;SHT31;46879;45.658;11.814;2023-01-30T02:53:09;15.54;69.80
61000;SHT31;46879;45.658;11.814;2023-01-30T02:58:11;15.53;69.87
61000;SHT31;46879;45.658;11.814;2023-01-30T03:14:09;15.49;69.75
61000;SHT31;46879;45.658;11.814;2023-01-30T03:19:12;15.50;69.63
61000;SHT31;46879;45.658;11.814;2023-01-30T03:24:13;15.49;69.84
61000;SHT31;46879;45.658;11.814;2023-01-30T03:29:15;15.47;69.86
61000;SHT31;46879;45.658;11.814;2023-01-30T03:34:15;15.47;69.94
61000;SHT31;46879;45.658;11.814;2023-01-30T03:39:16;15.49;69.80
61000;SHT31;46879;45.658;11.814;2023-01-30T03:44:16;15.47;69.97
61000;SHT31;46879;45.658;11.814;2023-01-30T03:49:17;15.47;69.99
61000;SHT31;46879;45.658;11.814;2023-01-30T03:54:18;15.47;70.00
61000;SHT31;46879;45.658;11.814;2023-01-30T03:59:18;15.44;70.11
61000;SHT31;46879;45.658;11.814;2023-01-30T04:04:19;15.46;70.14
61000;SHT31;46879;45.658;11.814;2023-01-30T04:09:19;15.43;70.12
61000;SHT31;46879;45.658;11.814;2023-01-30T04:14:20;15.44;70.13
61000;SHT31;46879;45.658;11.814;2023-01-30T04:19:20;15.44;70.08
61000;SHT31;46879;45.658;11.814;2023-01-30T04:24:21;15.47;70.06
61000;SHT31;46879;45.658;11.814;2023-01-30T04:29:22;15.42;70.04
61000;SHT31;46879;45.658;11.814;2023-01-30T04:34:22;15.44;70.11
61000;SHT31;46879;45.658;11.814;2023-01-30T04:39:23;15.46;70.06
61000;SHT31;46879;45.658;11.814;2023-01-30T04:44:23;15.43;70.06
61000;SHT31;46879;45.658;11.814;2023-01-30T04:49:24;15.42;70.10
61000;SHT31;46879;45.658;11.814;2023-01-30T04:54:25;15.42;70.08
61000;SHT31;46879;45.658;11.814;2023-01-30T04:59:25;15.40;70.06
61000;SHT31;46879;45.658;11.814;2023-01-30T05:04:26;15.40;70.18
61000;SHT31;46879;45.658;11.814;2023-01-30T05:09:27;15.37;70.11
61000;SHT31;46879;45.658;11.814;2023-01-30T05:14:27;15.39;70.15
61000;SHT31;46879;45.658;11.814;2023-01-30T05:19:28;15.37;70.11
61000;SHT31;46879;45.658;11.814;2023-01-30T05:24:28;15.39;70.13
61000;SHT31;46879;45.658;11.814;2023-01-30T05:29:29;15.37;70.18
61000;SHT31;46879;45.658;11.814;2023-01-30T05:34:29;15.36;70.14
61000;SHT31;46879;45.658;11.814;2023-01-30T05:39:30;15.33;70.16
61000;SHT31;46879;45.658;11.814;2023-01-30T05:44:31;15.37;70.21
61000;SHT31;46879;45.658;11.814;2023-01-30T05:49:31;15.37;70.20
61000;SHT31;46879;45.658;11.814;2023-01-30T05:54:33;15.36;70.23
61000;SHT31;46879;45.658;11.814;2023-01-30T05:59:34;15.37;70.23
61000;SHT31;46879;45.658;11.814;2023-01-30T06:04:34;15.34;70.35
61000;SHT31;46879;45.658;11.814;2023-01-30T06:09:35;15.34;70.36
61000;SHT31;46879;45.658;11.814;2023-01-30T06:14:35;15.34;70.35
61000;SHT31;46879;45.658;11.814;2023-01-30T06:19:36;15.34;70.36
61000;SHT31;46879;45.658;11.814;2023-01-30T06:24:37;15.33;70.40
61000;SHT31;46879;45.658;11.814;2023-01-30T06:29:37;15.44;69.70
61000;SHT31;46879;45.658;11.814;2023-01-30T06:34:38;15.53;68.06
61000;SHT31;46879;45.658;11.814;2023-01-30T06:39:38;15.51;67.10
61000;SHT31;46879;45.658;11.814;2023-01-30T06:44:39;15.53;66.78
61000;SHT31;46879;45.658;11.814;2023-01-30T06:49:39;15.49;66.81
61000;SHT31;46879;45.658;11.814;2023-01-30T06:54:40;15.54;66.72
61000;SHT31;46879;45.658;11.814;2023-01-30T06:59:41;15.58;65.61
61000;SHT31;46879;45.658;11.814;2023-01-30T07:04:41;15.67;66.55
61000;SHT31;46879;45.658;11.814;2023-01-30T07:09:42;15.72;65.90
61000;SHT31;46879;45.658;11.814;2023-01-30T07:14:43;15.72;64.77
61000;SHT31;46879;45.658;11.814;2023-01-30T07:19:45;15.72;64.33
61000;SHT31;46879;45.658;11.814;2023-01-30T07:24:45;15.74;63.90
61000;SHT31;46879;45.658;11.814;2023-01-30T07:29:46;15.75;63.67
61000;SHT31;46879;45.658;11.814;2023-01-30T07:34:47;15.75;63.30
61000;SHT31;46879;45.658;11.814;2023-01-30T07:39:47;15.77;63.23
61000;SHT31;46879;45.658;11.814;2023-01-30T07:44:48;15.75;63.11
61000;SHT31;46879;45.658;11.814;2023-01-30T07:49:48;15.77;63.09
61000;SHT31;46879;45.658;11.814;2023-01-30T07:54:49;15.78;63.04
61000;SHT31;46879;45.658;11.814;2023-01-30T07:59:50;15.75;63.16
61000;SHT31;46879;45.658;11.814;2023-01-30T08:04:50;15.77;62.99
61000;SHT31;46879;45.658;11.814;2023-01-30T08:09:51;15.80;62.81
61000;SHT31;46879;45.658;11.814;2023-01-30T08:14:51;15.77;62.72
61000;SHT31;46879;45.658;11.814;2023-01-30T08:19:52;15.80;62.70
61000;SHT31;46879;45.658;11.814;2023-01-30T08:24:52;15.77;62.55
61000;SHT31;46879;45.658;11.814;2023-01-30T08:29:53;15.77;62.25
61000;SHT31;46879;45.658;11.814;2023-01-30T08:34:54;15.77;62.32
61000;SHT31;46879;45.658;11.814;2023-01-30T08:39:54;15.74;62.48
61000;SHT31;46879;45.658;11.814;2023-01-30T08:44:55;15.74;62.40
61000;SHT31;46879;45.658;11.814;2023-01-30T08:49:55;15.74;62.23
61000;SHT31;46879;45.658;11.814;2023-01-30T08:54:56;15.75;62.26
61000;SHT31;46879;45.658;11.814;2023-01-30T08:59:56;15.74;62.14
61000;SHT31;46879;45.658;11.814;2023-01-30T09:04:57;15.75;61.94
61000;SHT31;46879;45.658;11.814;2023-01-30T09:09:58;15.75;61.85
61000;SHT31;46879;45.658;11.814;2023-01-30T09:14:58;15.77;61.88
61000;SHT31;46879;45.658;11.814;2023-01-30T09:19:59;15.77;61.75
61000;SHT31;46879;45.658;11.814;2023-01-30T09:25:00;15.81;61.52
61000;SHT31;46879;45.658;11.814;2023-01-30T09:30:01;15.81;61.56
61000;SHT31;46879;45.658;11.814;2023-01-30T09:35:03;15.78;61.54
61000;SHT31;46879;45.658;11.814;2023-01-30T09:40:04;15.81;61.50
61000;SHT31;46879;45.658;11.814;2023-01-30T09:45:42;15.77;61.66
61000;SHT31;46879;45.658;11.814;2023-01-30T09:56:40;15.80;61.18
61000;SHT31;46879;45.658;11.814;2023-01-30T10:02:28;15.81;61.23
61000;SHT31;46879;45.658;11.814;2023-01-30T10:14:02;15.77;61.18
61000;SHT31;46879;45.658;11.814;2023-01-30T10:24:51;15.75;61.21
61000;SHT31;46879;45.658;11.814;2023-01-30T10:29:59;15.72;61.10
61000;SHT31;46879;45.658;11.814;2023-01-30T10:35:12;15.71;61.08
61000;SHT31;46879;45.658;11.814;2023-01-30T10:40:39;15.74;61.02
61000;SHT31;46879;45.658;11.814;2023-01-30T11:07:12;15.77;60.30
61000;SHT31;46879;45.658;11.814;2023-01-30T11:12:14;15.80;60.09
61000;SHT31;46879;45.658;11.814;2023-01-30T11:17:20;15.82;59.72
61000;SHT31;46879;45.658;11.814;2023-01-30T11:22:24;15.85;59.54
61000;SHT31;46879;45.658;11.814;2023-01-30T11:27:33;15.85;59.47
61000;SHT31;46879;45.658;11.814;2023-01-30T11:32:34;15.87;59.46
61000;SHT31;46879;45.658;11.814;2023-01-30T11:37:41;15.89;59.39
61000;SHT31;46879;45.658;11.814;2023-01-30T11:43:03;15.88;59.42
61000;SHT31;46879;45.658;11.814;2023-01-30T11:48:18;15.87;59.38
61000;SHT31;46879;45.658;11.814;2023-01-30T11:58:32;15.89;59.48
61000;SHT31;46879;45.658;11.814;2023-01-30T12:03:43;15.88;59.45
61000;SHT31;46879;45.658;11.814;2023-01-30T12:08:44;15.89;59.42
61000;SHT31;46879;45.658;11.814;2023-01-30T12:13:45;15.88;59.31
61000;SHT31;46879;45.658;11.814;2023-01-30T12:19:06;15.88;59.40
61000;SHT31;46879;45.658;11.814;2023-01-30T12:24:59;15.89;59.33
61000;SHT31;46879;45.658;11.814;2023-01-30T12:35:53;15.88;59.28
61000;SHT31;46879;45.658;11.814;2023-01-30T12:57:20;15.82;60.01
61000;SHT31;46879;45.658;11.814;2023-01-30T13:02:47;15.80;60.26
61000;SHT31;46879;45.658;11.814;2023-01-30T13:24:10;15.77;61.07
61000;SHT31;46879;45.658;11.814;2023-01-30T13:29:37;15.77;61.25
61000;SHT31;46879;45.658;11.814;2023-01-30T13:34:42;15.75;61.41
61000;SHT31;46879;45.658;11.814;2023-01-30T13:39:57;15.74;61.57
61000;SHT31;46879;45.658;11.814;2023-01-30T13:44:59;15.77;61.65
61000;SHT31;46879;45.658;11.814;2023-01-30T13:55:57;15.74;61.76
61000;SHT31;46879;45.658;11.814;2023-01-30T14:01:01;15.74;61.75
61000;SHT31;46879;45.658;11.814;2023-01-30T14:06:27;15.74;61.80
61000;SHT31;46879;45.658;11.814;2023-01-30T14:11:36;15.72;61.84
61000;SHT31;46879;45.658;11.814;2023-01-30T14:16:49;15.71;61.72
61000;SHT31;46879;45.658;11.814;2023-01-30T14:21:58;15.75;61.78
61000;SHT31;46879;45.658;11.814;2023-01-30T14:27:02;15.72;61.94
61000;SHT31;46879;45.658;11.814;2023-01-30T14:32:33;15.71;62.13
61000;SHT31;46879;45.658;11.814;2023-01-30T14:42:36;15.71;62.34
61000;SHT31;46879;45.658;11.814;2023-01-30T14:47:37;15.70;62.44
61000;SHT31;46879;45.658;11.814;2023-01-30T14:52:39;15.68;62.53
61000;SHT31;46879;45.658;11.814;2023-01-30T14:57:56;15.67;62.61
61000;SHT31;46879;45.658;11.814;2023-01-30T15:03:02;15.65;62.77
61000;SHT31;46879;45.658;11.814;2023-01-30T15:08:21;15.68;62.73
61000;SHT31;46879;45.658;11.814;2023-01-30T15:30:19;15.64;63.00
61000;SHT31;46879;45.658;11.814;2023-01-30T15:35:26;15.64;63.07
61000;SHT31;46879;45.658;11.814;2023-01-30T15:40:29;15.64;63.10
61000;SHT31;46879;45.658;11.814;2023-01-30T15:51:11;15.61;63.23
61000;SHT31;46879;45.658;11.814;2023-01-30T15:56:25;15.61;63.21
61000;SHT31;46879;45.658;11.814;2023-01-30T16:01:27;15.61;63.32
61000;SHT31;46879;45.658;11.814;2023-01-30T16:06:35;15.60;63.27
61000;SHT31;46879;45.658;11.814;2023-01-30T16:11:40;15.58;63.21
61000;SHT31;46879;45.658;11.814;2023-01-30T16:16:47;15.58;63.19
61000;SHT31;46879;45.658;11.814;2023-01-30T16:21:52;15.57;63.27
61000;SHT31;46879;45.658;11.814;2023-01-30T16:26:58;15.55;63.29
61000;SHT31;46879;45.658;11.814;2023-01-30T16:32:01;15.58;63.25
61000;SHT31;46879;45.658;11.814;2023-01-30T16:42:26;15.55;63.35
61000;SHT31;46879;45.658;11.814;2023-01-30T16:47:28;15.54;63.38
61000;SHT31;46879;45.658;11.814;2023-01-30T16:52:34;15.54;63.40
61000;SHT31;46879;45.658;11.814;2023-01-30T16:57:50;15.51;63.32
61000;SHT31;46879;45.658;11.814;2023-01-30T17:02:59;15.54;63.33
61000;SHT31;46879;45.658;11.814;2023-01-30T17:08:00;15.53;63.22
61000;SHT31;46879;45.658;11.814;2023-01-30T17:13:01;15.54;62.68
61000;SHT31;46879;45.658;11.814;2023-01-30T17:18:01;15.55;62.30
61000;SHT31;46879;45.658;11.814;2023-01-30T17:23:06;15.63;61.28
61000;SHT31;46879;45.658;11.814;2023-01-30T17:28:16;15.68;60.64
61000;SHT31;46879;45.658;11.814;2023-01-30T17:33:17;15.71;60.27
61000;SHT31;46879;45.658;11.814;2023-01-30T17:38:18;15.78;60.68
61000;SHT31;46879;45.658;11.814;2023-01-30T17:43:18;15.80;59.64
61000;SHT31;46879;45.658;11.814;2023-01-30T17:48:19;15.91;59.37
61000;SHT31;46879;45.658;11.814;2023-01-30T17:53:20;15.98;59.64
61000;SHT31;46879;45.658;11.814;2023-01-30T17:58:20;16.01;59.76
61000;SHT31;46879;45.658;11.814;2023-01-30T18:03:21;16.09;60.01
61000;SHT31;46879;45.658;11.814;2023-01-30T18:08:21;16.10;60.50
61000;SHT31;46879;45.658;11.814;2023-01-30T18:13:22;16.16;60.94
61000;SHT31;46879;45.658;11.814;2023-01-30T18:18:23;16.20;61.27
61000;SHT31;46879;45.658;11.814;2023-01-30T18:23:23;16.25;61.70
61000;SHT31;46879;45.658;11.814;2023-01-30T18:28:24;16.25;62.62
61000;SHT31;46879;45.658;11.814;2023-01-30T18:33:25;16.30;63.37
61000;SHT31;46879;45.658;11.814;2023-01-30T18:38:25;16.29;63.63
61000;SHT31;46879;45.658;11.814;2023-01-30T18:43:27;16.36;64.04
61000;SHT31;46879;45.658;11.814;2023-01-30T18:48:30;16.36;64.79
61000;SHT31;46879;45.658;11.814;2023-01-30T18:53:31;16.39;65.83
61000;SHT31;46879;45.658;11.814;2023-01-30T18:58:32;16.37;65.75
61000;SHT31;46879;45.658;11.814;2023-01-30T19:03:33;16.36;65.66
61000;SHT31;46879;45.658;11.814;2023-01-30T19:08:33;16.39;66.00
61000;SHT31;46879;45.658;11.814;2023-01-30T19:13:34;16.37;66.06
61000;SHT31;46879;45.658;11.814;2023-01-30T19:18:36;16.39;66.02
61000;SHT31;46879;45.658;11.814;2023-01-30T19:23:37;16.46;68.90
61000;SHT31;46879;45.658;11.814;2023-01-30T19:28:38;16.52;72.54
61000;SHT31;46879;45.658;11.814;2023-01-30T19:33:43;16.56;71.19
61000;SHT31;46879;45.658;11.814;2023-01-30T19:38:45;16.57;70.49
61000;SHT31;46879;45.658;11.814;2023-01-30T19:43:46;16.60;70.05
61000;SHT31;46879;45.658;11.814;2023-01-30T19:48:48;16.54;69.03
61000;SHT31;46879;45.658;11.814;2023-01-30T19:53:54;16.52;67.81
61000;SHT31;46879;45.658;11.814;2023-01-30T19:58:56;16.50;66.93
61000;SHT31;46879;45.658;11.814;2023-01-30T20:03:59;16.49;67.64
61000;SHT31;46879;45.658;11.814;2023-01-30T20:09:06;16.42;68.40
61000;SHT31;46879;45.658;11.814;2023-01-30T20:14:10;16.37;69.27
61000;SHT31;46879;45.658;11.814;2023-01-30T20:19:14;16.36;70.03
61000;SHT31;46879;45.658;11.814;2023-01-30T20:24:15;16.34;70.31
61000;SHT31;46879;45.658;11.814;2023-01-30T20:29:16;16.32;70.23
61000;SHT31;46879;45.658;11.814;2023-01-30T20:34:17;16.27;70.49
61000;SHT31;46879;45.658;11.814;2023-01-30T20:39:18;16.27;70.29
61000;SHT31;46879;45.658;11.814;2023-01-30T20:44:21;16.30;70.02
61000;SHT31;46879;45.658;11.814;2023-01-30T20:49:22;16.25;69.89
61000;SHT31;46879;45.658;11.814;2023-01-30T20:54:23;16.20;69.91
61000;SHT31;46879;45.658;11.814;2023-01-30T20:59:23;16.16;69.79
61000;SHT31;46879;45.658;11.814;2023-01-30T21:04:26;16.16;69.67
61000;SHT31;46879;45.658;11.814;2023-01-30T21:09:28;16.16;69.62
61000;SHT31;46879;45.658;11.814;2023-01-30T21:14:29;16.13;69.77
61000;SHT31;46879;45.658;11.814;2023-01-30T21:19:30;16.13;69.86
61000;SHT31;46879;45.658;11.814;2023-01-30T21:24:31;16.12;69.87
61000;SHT31;46879;45.658;11.814;2023-01-30T21:29:35;16.12;70.19
61000;SHT31;46879;45.658;11.814;2023-01-30T21:34:40;16.12;70.03
61000;SHT31;46879;45.658;11.814;2023-01-30T21:39:41;16.09;70.08
61000;SHT31;46879;45.658;11.814;2023-01-30T21:45:00;16.09;70.35
61000;SHT31;46879;45.658;11.814;2023-01-30T21:50:01;16.08;70.58
61000;SHT31;46879;45.658;11.814;2023-01-30T21:55:02;16.06;70.44
61000;SHT31;46879;45.658;11.814;2023-01-30T22:00:03;16.04;70.46
61000;SHT31;46879;45.658;11.814;2023-01-30T22:05:05;16.01;70.50
61000;SHT31;46879;45.658;11.814;2023-01-30T22:10:06;16.02;70.52
61000;SHT31;46879;45.658;11.814;2023-01-30T22:15:08;15.98;70.52
61000;SHT31;46879;45.658;11.814;2023-01-30T22:20:09;15.97;70.61
61000;SHT31;46879;45.658;11.814;2023-01-30T22:25:10;15.95;70.70
61000;SHT31;46879;45.658;11.814;2023-01-30T22:30:11;15.92;70.70
61000;SHT31;46879;45.658;11.814;2023-01-30T22:35:12;15.91;70.67
61000;SHT31;46879;45.658;11.814;2023-01-30T22:40:14;15.88;70.63
61000;SHT31;46879;45.658;11.814;2023-01-30T22:45:14;15.87;70.60
61000;SHT31;46879;45.658;11.814;2023-01-30T22:50:15;15.85;70.61
61000;SHT31;46879;45.658;11.814;2023-01-30T22:55:16;15.85;70.64
61000;SHT31;46879;45.658;11.814;2023-01-30T23:00:17;15.81;70.71
61000;SHT31;46879;45.658;11.814;2023-01-30T23:05:17;15.84;70.94
61000;SHT31;46879;45.658;11.814;2023-01-30T23:10:18;15.82;70.79
61000;SHT31;46879;45.658;11.814;2023-01-30T23:15:19;15.81;70.78
61000;SHT31;46879;45.658;11.814;2023-01-30T23:20:19;15.78;70.75
61000;SHT31;46879;45.658;11.814;2023-01-30T23:25:20;15.78;70.73
61000;SHT31;46879;45.658;11.814;2023-01-30T23:30:20;15.75;70.88
61000;SHT31;46879;45.658;11.814;2023-01-30T23:35:21;15.75;70.72
61000;SHT31;46879;45.658;11.814;2023-01-30T23:40:21;15.75;70.86
61000;SHT31;46879;45.658;11.814;2023-01-30T23:45:26;15.70;70.89
61000;SHT31;46879;45.658;11.814;2023-01-30T23:50:27;15.71;70.83
61000;SHT31;46879;45.658;11.814;2023-01-30T23:55:28;15.71;70.95
